Station: Ngayawili (Elcho Island)  

  Atmospheric Gas Attenuation - ITU Rec 676-11   ----------------- dB/100km -----------------
Date Time Temp RH % AH g/m3 Dew Point Wind Direction Speed kph Gust kph Barometer mB Rainfall Since 9am 24GHz 47GHz 76GHz 122GHz 134GHz 241GHz
05/05 11:00 30.1 67 20.43 23.5 17 35 1012.1 0 43.4 40.2 78.5 207.9 230.8 802.3
05/05 10:50 29.4 74 21.73 24.3 15 20 1012.3 0 46.2 43.0 85.3 226.0 252.8 878.7
05/05 10:40 29.6 74 21.96 24.5 20 24 1012.4 0 46.7 43.3 86.2 228.3 255.7 888.8
05/05 10:30 29.5 72 21.25 23.9 17 28 1012.6 0 45.2 42.1 83.0 219.7 245.1 852.0
05/05 10:20 29 79 22.69 25 15 17 1012.7 0 48.3 45.1 90.5 239.5 269.3 936.1
05/05 10:10 28.6 77 21.64 24.2 15 22 1012.8 0 46.2 43.3 85.9 227.3 254.2 883.4
05/05 10:00 28.5 76 21.24 23.9 19 32 1012.9 0 45.3 42.6 84.1 222.5 248.3 863.0
05/05 09:50 27.7 81 21.67 24.1 22 28 1013 0 46.3 43.8 87.0 230.4 257.8 895.8
05/05 09:40 28 82 22.3 24.6 22 30 1012.9 0 47.6 44.9 89.8 237.7 266.7 927.0
05/05 09:30 27.8 84 22.6 24.8 17 26 1012.9 0 48.3 45.6 91.5 242.3 272.3 946.3
05/05 09:20 27.4 85 22.37 24.7 15 19 1012.8 0 47.8 45.3 90.8 240.5 270.0 938.3
05/05 09:10 27.2 84 21.86 24.3 26 32 1012.7 0 46.8 44.4 88.5 234.4 262.5 912.2
05/05 09:00 27 88 22.65 24.8 17 24 1012.8 0 48.5 46.1 92.7 245.5 276.1 959.3
05/05 08:50 26.8 91 23.16 25.2 13 17 1012.7 0 49.6 47.3 95.6 253.0 285.2 991.1
05/05 08:40 26.3 93 23.02 25.1 13 17 1012.6 0 49.4 47.3 95.5 252.8 284.8 989.6
05/05 08:30 26.2 95 23.39 25.3 13 20 1012.6 0 50.2 48.1 97.5 258.2 291.4 1012.5
05/05 08:20 25.8 97 23.35 25.3 15 17 1012.5 0 50.1 48.2 97.8 259.1 292.3 1015.5
05/05 08:10 25.4 98 23.07 25.1 19 24 1012.5 0 49.6 47.9 96.9 256.6 289.2 1004.5
05/05 08:00 25.1 100 23.15 25.1 13 20 1012.4 0 49.8 48.2 97.7 258.7 291.7 1013.3
05/05 07:50 24.6 100 22.51 24.6 15 17 1012.4 0 48.5 47.2 95.0 251.6 282.8 982.3
05/05 07:40 24.6 100 22.51 24.6 13 15 1012.3 0 48.5 47.2 95.0 251.6 282.8 982.3
05/05 07:30 24.7 100 22.63 24.7 13 19 1012.1 0 48.8 47.4 95.5 252.8 284.4 987.8
05/05 07:20 24.4 100 22.25 24.4 11 13 1012 0 48.0 46.8 93.9 248.6 279.1 969.5
05/05 07:10 23.8 100 21.51 23.8 9 9 1011.9 0 46.5 45.6 90.8 240.4 268.9 934.0
05/05 07:00 23.5 100 21.15 23.5 7 9 1011.9 0 45.7 45.0 89.3 236.5 264.0 916.8
05/05 06:50 23.5 100 21.15 23.5 7 9 1011.8 0 45.7 45.0 89.3 236.5 264.0 916.8
05/05 06:40 23.6 100 21.27 23.6 7 9 1011.7 0 46.0 45.2 89.8 237.8 265.6 922.4
05/05 06:30 23.8 100 21.51 23.8 7 9 1011.5 0 46.5 45.5 90.8 240.4 268.9 933.7
05/05 06:20 23.9 100 21.63 23.9 7 9 1011.3 0 46.7 45.7 91.3 241.6 270.5 939.3
05/05 06:10 23.9 100 21.63 23.9 7 9 1011.2 0 46.7 45.7 91.3 241.6 270.4 939.2
05/05 06:00 23.9 100 21.63 23.9 7 11 1011.1 0 46.7 45.7 91.3 241.6 270.4 939.2
05/05 05:50 23.9 100 21.63 23.9 7 9 1011 0 46.7 45.7 91.3 241.6 270.4 939.1
05/05 05:40 24.2 100 22 24.2 6 7 1010.8 0 47.5 46.3 92.8 245.6 275.5 956.7
05/05 05:30 24 100 21.76 24 7 11 1010.7 0 47.0 45.9 91.8 243.0 272.2 945.2
05/05 05:20 24.1 100 21.88 24.1 9 11 1010.7 0 47.2 46.1 92.3 244.3 273.8 950.9
05/05 05:10 23.8 100 21.51 23.8 7 9 1010.7 0 46.5 45.5 90.7 240.2 268.7 933.2
05/05 05:00 24 100 21.76 24 9 11 1010.9 0 47.0 45.9 91.8 243.0 272.2 945.3
05/05 04:50 23.9 100 21.63 23.9 9 9 1010.9 0 46.7 45.7 91.3 241.6 270.4 939.1
05/05 04:40 23.9 100 21.63 23.9 9 9 1010.9 0 46.7 45.7 91.3 241.6 270.4 939.1
05/05 04:30 24 100 21.76 24 9 11 1010.8 0 47.0 45.9 91.8 243.0 272.2 945.3
05/05 04:20 23.9 100 21.63 23.9 9 9 1010.9 0 46.7 45.7 91.3 241.6 270.4 939.1
05/05 04:10 23.9 100 21.63 23.9 7 9 1011 0 46.7 45.7 91.3 241.6 270.4 939.1
05/05 04:00 24.1 100 21.88 24.1 7 9 1011 0 47.2 46.1 92.3 244.3 273.9 951.1
05/05 03:50 24.1 100 21.88 24.1 7 7 1011 0 47.2 46.1 92.3 244.3 273.9 951.1
05/05 03:40 24.3 100 22.13 24.3 7 9 1011 0 47.7 46.5 93.3 247.1 277.3 963.1
05/05 03:30 24.4 100 22.25 24.4 9 9 1011 0 48.0 46.7 93.8 248.4 278.9 968.8
05/05 03:20 24.4 99 22.03 24.2 7 9 1011 0 47.5 46.3 92.7 245.4 275.2 956.0
05/05 03:10 24.4 99 22.03 24.2 9 9 1011.1 0 47.5 46.3 92.7 245.4 275.3 956.0
05/05 03:00 24.5 99 22.16 24.3 9 11 1011.1 0 47.8 46.5 93.2 246.9 277.1 962.3
05/05 02:50 24.5 99 22.16 24.3 9 11 1011.2 0 47.8 46.5 93.3 246.9 277.1 962.4
05/05 02:40 24.4 99 22.03 24.2 9 11 1011.2 0 47.5 46.3 92.7 245.4 275.3 956.1
05/05 02:30 24.4 99 22.03 24.2 9 11 1011.3 0 47.5 46.3 92.7 245.5 275.3 956.2
05/05 02:20 24.4 99 22.03 24.2 9 9 1011.4 0 47.5 46.3 92.7 245.5 275.3 956.2
05/05 02:10 24.4 98 21.81 24.1 9 9 1011.4 0 47.0 45.8 91.6 242.5 271.6 943.5
05/05 02:00 24.4 98 21.81 24.1 9 11 1011.5 0 47.0 45.8 91.6 242.5 271.6 943.5
05/05 01:50 24.5 98 21.93 24.2 6 7 1011.5 0 47.3 46.0 92.1 243.8 273.3 949.2
05/05 01:40 24.5 97 21.71 24 7 9 1011.5 0 46.8 45.6 91.0 240.8 269.6 936.5
05/05 01:30 24.8 97 22.08 24.3 9 11 1011.4 0 47.6 46.1 92.5 244.8 274.6 954.0
05/05 01:20 24.8 97 22.08 24.3 9 9 1011.5 0 47.6 46.2 92.5 244.9 274.7 954.0
05/05 01:10 24.9 96 21.97 24.2 7 9 1011.7 0 47.3 45.9 91.8 243.1 272.5 946.5
05/05 01:00 24.9 96 21.97 24.2 9 11 1011.7 0 47.3 45.9 91.8 243.1 272.5 946.5
05/05 00:50 24.9 96 21.97 24.2 9 9 1011.7 0 47.3 45.9 91.8 243.1 272.5 946.5
05/05 00:40 25 96 22.1 24.3 9 11 1011.8 0 47.6 46.1 92.4 244.5 274.3 952.8
05/05 00:30 24.8 96 21.85 24.1 9 11 1011.8 0 47.1 45.7 91.3 241.8 270.9 940.9
05/05 00:20 24.8 97 22.08 24.3 9 9 1011.9 0 47.6 46.2 92.5 244.9 274.7 954.3
05/05 00:10 24.8 96 21.85 24.1 9 9 1012.1 0 47.1 45.7 91.4 241.8 270.9 941.1
05/05 00:00 24.9 96 21.97 24.2 9 9 1012.2 0 47.3 45.9 91.8 243.2 272.6 946.8
04/05 23:50 25 95 21.87 24.1 7 9 1012.4 0 47.1 45.7 91.2 241.5 270.6 939.9
04/05 23:40 25.1 95 21.99 24.2 9 9 1012.4 0 47.3 45.8 91.7 242.8 272.2 945.6
04/05 23:30 25.1 95 21.99 24.2 9 11 1012.6 0 47.3 45.9 91.7 242.8 272.2 945.7
04/05 23:20 25.2 95 22.12 24.3 7 9 1012.6 0 47.6 46.1 92.3 244.3 274.0 951.9
04/05 23:10 25.2 95 22.12 24.3 9 9 1012.6 0 47.6 46.1 92.3 244.3 274.0 951.9
04/05 23:00 25.3 95 22.24 24.4 9 11 1012.6 0 47.8 46.2 92.8 245.6 275.6 957.5
04/05 22:50 25.3 94 22.01 24.3 9 11 1012.6 0 47.3 45.8 91.6 242.5 271.8 944.3
04/05 22:40 25.4 93 21.89 24.2 9 9 1012.6 0 47.1 45.5 90.9 240.5 269.5 936.1
04/05 22:30 25.5 92 21.78 24.1 7 11 1012.7 0 46.8 45.2 90.2 238.7 267.3 928.7
04/05 22:20 25.6 91 21.66 24 9 11 1012.7 0 46.6 44.9 89.5 236.8 265.0 920.6
04/05 22:10 25.7 91 21.79 24.1 9 13 1012.7 0 46.8 45.1 90.0 238.2 266.8 926.7
04/05 22:00 25.6 90 21.43 23.8 9 11 1012.8 0 46.1 44.5 88.3 233.8 261.3 907.6
04/05 21:50 25.8 88 21.19 23.7 7 9 1012.8 0 45.5 43.9 86.9 230.0 256.7 891.7
04/05 21:40 25.9 87 21.06 23.6 7 9 1012.9 0 45.2 43.6 86.1 228.0 254.3 883.3
04/05 21:30 26.1 86 21.05 23.6 9 13 1012.9 0 45.2 43.4 85.9 227.3 253.4 880.4
04/05 21:20 26.2 84 20.68 23.3 9 11 1012.9 0 44.4 42.7 83.9 222.2 247.2 858.8
04/05 21:10 26.3 84 20.8 23.4 7 9 1012.8 0 44.6 42.8 84.4 223.4 248.7 864.2
04/05 21:00 26.5 82 20.53 23.2 9 13 1012.7 0 44.0 42.2 82.9 219.3 243.8 847.1
04/05 20:50 26.8 81 20.62 23.3 7 9 1012.7 0 44.2 42.2 83.0 219.6 244.2 848.6
04/05 20:40 27 79 20.33 23 7 7 1012.5 0 43.6 41.6 81.4 215.3 239.0 830.6
04/05 20:30 27.1 78 20.19 22.9 9 13 1012.4 0 43.3 41.2 80.6 213.2 236.5 821.9
04/05 20:20 27.3 79 20.67 23.3 9 13 1012.4 0 44.3 42.1 82.6 218.7 243.3 845.5
04/05 20:10 27.2 82 21.34 23.9 7 9 1012.3 0 45.7 43.4 86.0 227.6 254.2 883.2
04/05 20:00 27.2 85 22.12 24.5 7 13 1012.3 0 47.3 44.9 89.8 237.8 266.6 926.5
04/05 19:50 27.3 87 22.77 24.9 7 7 1012.2 0 48.7 46.2 92.9 246.0 276.8 961.8
04/05 19:40 27.4 86 22.63 24.8 7 9 1012 0 48.4 45.8 92.1 243.8 274.1 952.5
04/05 19:30 27.4 87 22.89 25 7 9 1012 0 49.0 46.3 93.4 247.3 278.4 967.2
04/05 19:20 27.3 88 23.03 25.1 6 6 1011.8 0 49.3 46.7 94.2 249.4 281.0 976.4
04/05 19:10 27.4 87 22.89 25 6 7 1011.7 0 49.0 46.3 93.4 247.2 278.3 967.1
04/05 19:00 27.6 86 22.88 25 7 11 1011.6 0 48.9 46.2 93.0 246.4 277.4 963.8
04/05 18:50 27.8 85 22.86 25 9 9 1011.4 0 48.8 46.0 92.7 245.4 276.3 960.0
04/05 18:40 27.8 85 22.86 25 7 9 1011.3 0 48.8 46.0 92.7 245.4 276.2 959.9
04/05 18:30 28.1 83 22.7 24.9 9 15 1011.2 0 48.5 45.5 91.5 242.3 272.5 947.1

Last Refresh: 05-May-2026 11:01:36

Bureau of Meteorology